Time;durP1;ratioP1;P1;durP2;ratioP2;P2;SDS_P1;SDS_P2;PMS_P1;PMS_P2;Temp;Humidity;BMP_temperature;BMP_pressure;BME280_temperature;BME280_humidity;BME280_pressure;Samples;Min_cycle;Max_cycle;Signal;HPM_P1;HPM_P2
2022/12/28 00:01:10;;;;;;;12.60;4.13;;;;;;;4.36;100.00;101444.75;5053263;28;20388;-79
2022/12/28 00:03:36;;;;;;;13.27;4.47;;;;;;;4.45;100.00;101452.16;5053091;28;20481;-79
2022/12/28 00:06:03;;;;;;;12.30;4.38;;;;;;;4.48;100.00;101440.59;5053445;28;20045;-79
2022/12/28 00:08:28;;;;;;;10.77;4.32;;;;;;;4.51;100.00;101430.75;5052933;28;20033;-79
2022/12/28 00:11:02;;;;;;;14.98;5.35;;;;;;;4.59;100.00;101438.22;5053483;28;20086;-79
2022/12/28 00:13:30;;;;;;;9.65;4.22;;;;;;;4.62;100.00;101422.22;5052906;28;20458;-79
2022/12/28 00:15:55;;;;;;;8.73;4.35;;;;;;;4.69;100.00;101430.66;5053031;28;20520;-80
2022/12/28 00:18:20;;;;;;;15.40;4.85;;;;;;;4.71;100.00;101426.13;5051601;28;20061;-79
2022/12/28 00:20:58;;;;;;;9.55;4.15;;;;;;;4.72;100.00;101407.59;5053160;28;20029;-78
2022/12/28 00:23:24;;;;;;;11.80;4.57;;;;;;;4.79;100.00;101408.09;5052725;28;20037;-79
2022/12/28 00:25:49;;;;;;;9.05;4.20;;;;;;;4.83;100.00;101388.53;5053059;28;20032;-80
2022/12/28 00:28:15;;;;;;;10.50;4.72;;;;;;;4.85;100.00;101384.03;5052776;28;20480;-80
2022/12/28 00:30:40;;;;;;;11.45;4.70;;;;;;;4.89;100.00;101389.97;5052285;28;20072;-79
2022/12/28 00:33:05;;;;;;;10.52;4.78;;;;;;;4.91;100.00;101377.53;5051527;28;20033;-80
2022/12/28 00:35:31;;;;;;;8.60;5.18;;;;;;;4.93;100.00;101365.94;5052643;28;20055;-79
2022/12/28 00:37:56;;;;;;;13.93;5.07;;;;;;;4.96;100.00;101359.66;5052946;28;20112;-79
2022/12/28 00:40:21;;;;;;;13.63;5.13;;;;;;;5.04;100.00;101353.94;5052520;28;20087;-79
2022/12/28 00:42:47;;;;;;;13.27;5.25;;;;;;;5.01;100.00;101343.56;5052822;28;20033;-80
2022/12/28 00:45:12;;;;;;;10.63;5.63;;;;;;;4.96;100.00;101349.09;5052759;28;20052;-79
2022/12/28 00:47:37;;;;;;;14.55;6.55;;;;;;;4.96;100.00;101354.38;5052324;28;20033;-79
2022/12/28 00:50:03;;;;;;;11.23;5.53;;;;;;;4.99;100.00;101341.00;5052869;28;20029;-80
2022/12/28 00:52:28;;;;;;;13.63;6.20;;;;;;;5.02;100.00;101355.81;5052132;28;20055;-80
2022/12/28 00:54:54;;;;;;;11.45;5.53;;;;;;;5.08;100.00;101337.00;5052556;28;20115;-80
2022/12/28 00:57:19;;;;;;;12.20;6.00;;;;;;;5.19;100.00;101333.69;5052641;28;20057;-79
2022/12/28 00:59:44;;;;;;;11.68;6.05;;;;;;;5.26;100.00;101348.22;5052135;28;20044;-79
2022/12/28 01:02:10;;;;;;;10.95;5.22;;;;;;;5.27;100.00;101342.84;5051741;28;20448;-81
2022/12/28 01:04:35;;;;;;;11.48;5.85;;;;;;;5.25;100.00;101336.81;5051939;28;20496;-79
2022/12/28 01:07:00;;;;;;;9.60;5.82;;;;;;;5.33;100.00;101320.53;5052763;28;20479;-80
2022/12/28 01:09:25;;;;;;;11.45;5.65;;;;;;;5.38;100.00;101321.09;5052246;28;20470;-80
2022/12/28 01:11:51;;;;;;;13.77;5.72;;;;;;;5.43;100.00;101318.16;5052224;28;20056;-80
2022/12/28 01:14:16;;;;;;;10.20;5.20;;;;;;;5.49;100.00;101307.22;5052518;28;20087;-81
2022/12/28 01:16:41;;;;;;;13.93;6.03;;;;;;;5.49;100.00;101301.94;5052189;28;20074;-79
2022/12/28 01:19:07;;;;;;;9.23;5.30;;;;;;;5.51;100.00;101294.81;5052329;28;20367;-80
2022/12/28 01:21:34;;;;;;;7.47;4.65;;;;;;;5.51;100.00;101302.72;5052027;28;20416;-80
2022/12/28 01:24:02;;;;;;;9.10;5.45;;;;;;;5.53;100.00;101308.75;5052571;28;20057;-80
2022/12/28 01:26:28;;;;;;;11.23;5.68;;;;;;;5.52;100.00;101283.28;5051921;28;20039;-79
2022/12/28 01:28:53;;;;;;;7.72;5.35;;;;;;;5.53;100.00;101310.53;5052374;28;20122;-80
2022/12/28 01:31:20;;;;;;;8.55;5.13;;;;;;;5.56;100.00;101291.88;5052349;28;20049;-80
2022/12/28 01:33:46;;;;;;;9.55;5.15;;;;;;;5.59;100.00;101295.16;5051813;28;20140;-80
2022/12/28 01:36:18;;;;;;;8.77;5.32;;;;;;;5.61;100.00;101295.06;5052295;28;20037;-79
2022/12/28 01:38:44;;;;;;;10.75;5.35;;;;;;;5.61;100.00;101274.81;5051923;28;20032;-81
2022/12/28 01:41:13;;;;;;;9.13;5.00;;;;;;;5.66;100.00;101271.88;5052157;28;20363;-81
2022/12/28 01:43:41;;;;;;;7.22;4.97;;;;;;;5.69;100.00;101270.81;5051513;28;20465;-80
2022/12/28 01:46:10;;;;;;;8.32;5.28;;;;;;;5.70;100.00;101260.16;5052109;28;20025;-81
2022/12/28 01:48:43;;;;;;;12.93;5.60;;;;;;;5.71;100.00;101246.00;5051713;28;20036;-84
2022/12/28 01:51:08;;;;;;;10.95;5.75;;;;;;;5.72;100.00;101275.91;5050912;28;20025;-82
2022/12/28 01:53:34;;;;;;;10.88;5.35;;;;;;;5.68;100.00;101251.50;5051614;28;20110;-80
2022/12/28 01:55:59;;;;;;;8.45;5.70;;;;;;;5.65;100.00;101271.00;5050901;28;20049;-81
2022/12/28 01:58:29;;;;;;;7.70;5.32;;;;;;;5.67;100.00;101238.41;5052074;28;20029;-80
2022/12/28 02:00:54;;;;;;;9.35;5.60;;;;;;;5.68;100.00;101242.75;5052132;28;20131;-81
2022/12/28 02:03:26;;;;;;;8.55;4.93;;;;;;;5.70;100.00;101256.69;5052039;28;20029;-82
2022/12/28 02:05:56;;;;;;;8.55;5.10;;;;;;;5.72;100.00;101257.41;5051742;28;20040;-82
2022/12/28 02:08:53;;;;;;;9.52;5.28;;;;;;;5.69;100.00;101260.25;5052541;28;20190;-81
2022/12/28 02:11:18;;;;;;;10.25;5.05;;;;;;;5.73;100.00;101238.88;5052172;28;20479;-82
2022/12/28 02:13:46;;;;;;;11.52;5.40;;;;;;;5.72;100.00;101218.69;5052599;28;20028;-81
2022/12/28 02:16:12;;;;;;;11.27;5.18;;;;;;;5.74;100.00;101215.94;5055503;28;20120;-81
2022/12/28 02:18:39;;;;;;;9.68;5.32;;;;;;;5.75;100.00;101236.97;5053716;28;20120;-82
2022/12/28 02:21:19;;;;;;;10.48;4.97;;;;;;;5.83;100.00;101212.69;5055947;28;20060;-82
2022/12/28 02:24:18;;;;;;;9.15;5.30;;;;;;;5.84;100.00;101227.59;5055087;28;20048;-82
2022/12/28 02:27:04;;;;;;;8.00;4.70;;;;;;;5.86;100.00;101206.38;5054097;28;20020;-84
2022/12/28 02:29:56;;;;;;;8.38;5.00;;;;;;;5.86;100.00;101216.94;5055241;28;20508;-82
2022/12/28 02:32:25;;;;;;;12.43;5.35;;;;;;;5.86;100.00;101207.22;5055185;28;20486;-81
2022/12/28 02:35:22;;;;;;;10.18;5.32;;;;;;;5.83;100.00;101208.25;5054413;28;20041;-81
2022/12/28 02:37:57;;;;;;;7.90;4.90;;;;;;;5.82;100.00;101214.50;5054178;28;20044;-81
2022/12/28 02:40:29;;;;;;;9.80;5.07;;;;;;;5.84;100.00;101195.91;5055643;28;20036;-81
2022/12/28 02:42:54;;;;;;;11.52;4.80;;;;;;;5.89;100.00;101209.66;5054803;28;20331;-82
2022/12/28 02:51:19;;;;;;;12.32;4.70;;;;;;;5.93;100.00;101211.16;5054778;28;20044;-81
2022/12/28 02:56:05;;;;;;;9.50;4.80;;;;;;;5.90;100.00;101203.44;5054221;28;20377;-81
2022/12/28 02:57:23;;;;;;;11.52;5.38;;;;;;;5.89;100.00;101209.66;5054078;28;20477;-80
2022/12/28 03:00:08;;;;;;;10.48;4.93;;;;;;;5.92;100.00;101212.09;5053958;28;20032;-82
2022/12/28 03:02:51;;;;;;;5.85;4.53;;;;;;;5.96;100.00;101210.97;5054865;28;20060;-81
2022/12/28 03:08:13;;;;;;;10.07;4.68;;;;;;;5.96;100.00;101200.41;5054905;28;20033;-81
2022/12/28 03:08:19;;;;;;;10.48;4.97;;;;;;;5.95;100.00;101200.50;5054420;28;20126;-80
2022/12/28 03:11:09;;;;;;;10.38;4.93;;;;;;;5.93;100.00;101197.13;5054575;28;20028;-81
2022/12/28 03:14:01;;;;;;;11.88;4.78;;;;;;;5.93;100.00;101190.03;5054373;28;20025;-81
2022/12/28 03:16:31;;;;;;;7.22;4.13;;;;;;;5.97;100.00;101174.84;5054769;28;20029;-81
2022/12/28 03:33:01;;;;;;;4.78;3.97;;;;;;;6.06;100.00;101170.75;5053778;28;20103;-81
2022/12/28 03:35:39;;;;;;;5.03;4.20;;;;;;;6.06;100.00;101168.13;5055540;28;20053;-81
2022/12/28 03:38:09;;;;;;;5.70;4.22;;;;;;;6.05;100.00;101169.09;5054290;28;20136;-81
2022/12/28 03:40:48;;;;;;;10.35;4.55;;;;;;;6.06;100.00;101161.06;5055202;28;20079;-82
2022/12/28 03:43:41;;;;;;;6.20;4.00;;;;;;;6.05;100.00;101175.19;5053915;28;20031;-80
2022/12/28 03:46:23;;;;;;;6.75;4.15;;;;;;;6.06;100.00;101155.78;5053587;28;20024;-80
2022/12/28 03:48:49;;;;;;;8.80;3.95;;;;;;;6.08;100.00;101169.72;5053503;28;20048;-82
2022/12/28 03:51:18;;;;;;;7.28;3.85;;;;;;;6.08;100.00;101164.44;5053755;28;20072;-81
2022/12/28 03:53:46;;;;;;;8.10;3.90;;;;;;;6.06;100.00;101155.78;5053372;28;20025;-76
2022/12/28 03:56:18;;;;;;;5.22;3.55;;;;;;;6.05;100.00;101162.00;5053964;28;20456;-81
2022/12/28 03:58:44;;;;;;;10.15;4.13;;;;;;;6.05;100.00;101155.88;5053480;28;20495;-81
2022/12/28 04:01:10;;;;;;;8.70;3.53;;;;;;;6.07;100.00;101153.97;5053385;28;20104;-80
2022/12/28 04:03:36;;;;;;;7.05;3.65;;;;;;;6.09;100.00;101149.41;5053550;28;20118;-79
2022/12/28 04:06:01;;;;;;;8.02;3.28;;;;;;;6.09;100.00;101152.06;5053111;28;20484;-79
2022/12/28 04:08:27;;;;;;;7.57;3.90;;;;;;;6.11;100.00;101152.81;5053515;28;20021;-80
2022/12/28 04:10:53;;;;;;;8.18;3.55;;;;;;;6.11;100.00;101158.94;5053061;28;20037;-80
2022/12/28 04:13:18;;;;;;;6.57;3.58;;;;;;;6.11;100.00;101145.72;5053532;28;20057;-80
2022/12/28 04:15:54;;;;;;;6.63;3.33;;;;;;;6.12;100.00;101143.91;5055766;28;20116;-81
2022/12/28 04:18:19;;;;;;;5.07;3.40;;;;;;;6.16;100.00;101140.13;5052122;28;20032;-80
2022/12/28 04:20:44;;;;;;;7.80;3.60;;;;;;;6.18;100.00;101133.81;5053221;28;20039;-80
2022/12/28 04:23:10;;;;;;;8.68;3.10;;;;;;;6.20;100.00;101128.41;5052798;28;20041;-81
2022/12/28 04:25:35;;;;;;;5.35;3.22;;;;;;;6.21;100.00;101130.13;5053482;28;20028;-81
2022/12/28 04:28:00;;;;;;;7.25;3.78;;;;;;;6.21;100.00;101127.47;5052825;28;20033;-81
2022/12/28 04:30:26;;;;;;;9.27;3.60;;;;;;;6.24;100.00;101124.63;5053047;28;20025;-80
2022/12/28 04:32:53;;;;;;;6.18;3.28;;;;;;;6.26;100.00;101132.44;5052270;28;20068;-81
2022/12/28 04:35:19;;;;;;;9.15;3.47;;;;;;;6.27;100.00;101119.13;5053142;28;20571;-80
2022/12/28 04:37:44;;;;;;;7.90;3.47;;;;;;;6.28;100.00;101122.59;5053064;28;20068;-80
2022/12/28 04:40:10;;;;;;;6.07;3.58;;;;;;;6.29;100.00;101111.94;5052194;28;20060;-81
2022/12/28 04:42:35;;;;;;;5.30;2.80;;;;;;;6.32;100.00;101135.50;5052912;28;20036;-81
2022/12/28 04:45:00;;;;;;;6.55;3.15;;;;;;;6.37;100.00;101114.03;5052496;28;20033;-82
2022/12/28 04:47:27;;;;;;;6.60;2.88;;;;;;;6.38;100.00;101113.09;5052638;28;20465;-81
2022/12/28 04:49:52;;;;;;;7.95;2.97;;;;;;;6.42;100.00;101105.78;5051956;28;20041;-81
2022/12/28 04:52:18;;;;;;;5.97;2.97;;;;;;;6.47;100.00;101125.69;5052510;28;20155;-81
2022/12/28 04:54:43;;;;;;;5.18;2.75;;;;;;;6.46;100.00;101123.16;5052844;28;20037;-79
2022/12/28 04:57:09;;;;;;;5.85;3.03;;;;;;;6.45;100.00;101124.94;5052608;28;20029;-81
2022/12/28 04:59:34;;;;;;;8.48;2.95;;;;;;;6.47;100.00;101114.28;5052541;28;20029;-81
2022/12/28 05:01:59;;;;;;;7.20;3.15;;;;;;;6.49;100.00;101104.44;5052237;28;20033;-80
2022/12/28 05:04:25;;;;;;;4.53;2.70;;;;;;;6.52;100.00;101098.91;5052675;28;20462;-80
2022/12/28 05:06:50;;;;;;;5.68;2.75;;;;;;;6.56;100.00;101099.56;5052350;28;20445;-80
2022/12/28 05:09:18;;;;;;;6.03;2.60;;;;;;;6.57;100.00;101104.75;5052174;28;20029;-80
2022/12/28 05:11:43;;;;;;;5.78;2.33;;;;;;;6.59;100.00;101089.63;5052550;28;20098;-80
2022/12/28 05:14:08;;;;;;;6.43;2.55;;;;;;;6.66;100.00;101090.06;5052037;28;20037;-80
2022/12/28 05:16:34;;;;;;;3.92;2.40;;;;;;;6.65;100.00;101086.53;5052731;28;20146;-81
2022/12/28 05:18:59;;;;;;;5.60;2.75;;;;;;;6.67;100.00;101097.88;5052085;28;20033;-80
2022/12/28 05:21:27;;;;;;;4.90;2.58;;;;;;;6.71;100.00;101087.91;5051938;28;20424;-80
2022/12/28 05:23:52;;;;;;;3.90;2.60;;;;;;;6.73;100.00;101087.81;5052162;28;20477;-81
2022/12/28 05:26:21;;;;;;;7.45;2.88;;;;;;;6.71;100.00;101088.75;5052212;28;20039;-80
2022/12/28 05:28:47;;;;;;;4.55;2.60;;;;;;;6.74;100.00;101094.78;5052015;28;20025;-81
2022/12/28 05:31:15;;;;;;;4.07;2.60;;;;;;;6.80;100.00;101086.44;5051393;28;20170;-82
2022/12/28 05:33:41;;;;;;;6.30;2.58;;;;;;;6.84;100.00;101090.56;5051690;28;20060;-81
2022/12/28 05:36:10;;;;;;;5.00;2.50;;;;;;;6.84;100.00;101101.13;5051958;28;20075;-80
2022/12/28 05:38:35;;;;;;;4.53;2.67;;;;;;;6.88;100.00;101094.66;5052679;28;20029;-80
2022/12/28 05:41:05;;;;;;;3.53;2.38;;;;;;;6.92;100.00;101092.66;5051665;28;20116;-82
2022/12/28 05:43:30;;;;;;;6.75;2.58;;;;;;;6.97;100.00;101094.00;5052238;28;20025;-80
2022/12/28 05:46:03;;;;;;;5.65;2.75;;;;;;;6.99;100.00;101092.09;5051863;28;20366;-81
2022/12/28 05:48:37;;;;;;;6.90;2.60;;;;;;;7.03;100.00;101093.56;5052560;28;20029;-82
2022/12/28 05:51:05;;;;;;;6.25;2.63;;;;;;;7.03;100.00;101082.13;5055731;28;20036;-81
2022/12/28 05:53:31;;;;;;;8.18;2.72;;;;;;;7.03;100.00;101075.06;5055978;28;20029;-81
2022/12/28 05:56:17;;;;;;;3.40;2.58;;;;;;;7.00;100.00;101075.28;5055855;28;20028;-81
2022/12/28 05:58:44;;;;;;;6.47;2.72;;;;;;;7.01;100.00;101078.75;5056746;28;20086;-81
2022/12/28 06:01:19;;;;;;;6.03;2.58;;;;;;;7.01;100.00;101079.59;5056385;28;20033;-80
2022/12/28 06:03:46;;;;;;;5.07;2.70;;;;;;;7.01;100.00;101068.19;5056775;28;20040;-80
2022/12/28 06:06:17;;;;;;;5.55;2.80;;;;;;;7.04;100.00;101065.31;5055607;28;20037;-82
2022/12/28 06:08:43;;;;;;;7.60;2.80;;;;;;;7.09;100.00;101064.97;5054730;28;20045;-81
2022/12/28 06:11:11;;;;;;;3.40;2.45;;;;;;;7.12;100.00;101048.88;5055264;28;20035;-81
2022/12/28 06:13:37;;;;;;;5.20;2.95;;;;;;;7.12;100.00;101067.41;5055223;28;20469;-79
2022/12/28 06:16:07;;;;;;;6.80;2.42;;;;;;;7.09;100.00;101057.03;5055317;28;20174;-79
2022/12/28 06:18:32;;;;;;;5.95;2.60;;;;;;;7.09;100.00;101071.13;5055521;28;20035;-80
2022/12/28 06:21:10;;;;;;;7.40;2.72;;;;;;;7.09;100.00;101060.53;5055559;28;20029;-79
2022/12/28 06:23:36;;;;;;;6.07;2.80;;;;;;;7.09;100.00;101067.63;5055586;28;20040;-79
2022/12/28 06:26:03;;;;;;;5.03;2.55;;;;;;;7.07;100.00;101054.50;5055081;28;20051;-78
2022/12/28 06:28:29;;;;;;;6.78;2.47;;;;;;;7.07;100.00;101052.69;5055364;28;20509;-78
2022/12/28 06:31:10;;;;;;;6.13;2.70;;;;;;;7.04;100.00;101047.63;5055275;28;20036;-79
2022/12/28 06:33:36;;;;;;;;;;;;;;;7.06;100.00;101061.59;5054338;28;20440;-80
2022/12/28 06:36:02;;;;;;;4.38;2.58;;;;;;;7.09;100.00;101054.38;5055682;28;19920;-79
2022/12/28 06:38:31;;;;;;;3.33;2.40;;;;;;;7.09;100.00;101063.19;5054830;28;20389;-79
2022/12/28 06:41:01;;;;;;;5.78;2.60;;;;;;;7.10;100.00;101059.56;5055215;28;20105;-79
2022/12/28 06:43:30;;;;;;;4.38;2.67;;;;;;;7.04;100.00;101060.84;5054697;28;20029;-79
2022/12/28 06:45:55;;;;;;;5.53;2.92;;;;;;;7.03;100.00;101053.03;5055100;28;20108;-80
2022/12/28 06:48:21;;;;;;;8.25;3.10;;;;;;;7.00;100.00;101059.41;5054667;28;20116;-80
2022/12/28 06:51:01;;;;;;;5.78;2.80;;;;;;;7.01;100.00;101044.38;5055119;28;20024;-80
2022/12/28 06:53:29;;;;;;;5.93;2.85;;;;;;;7.03;100.00;101045.94;5054205;28;20037;-78
2022/12/28 06:56:00;;;;;;;6.68;2.63;;;;;;;7.04;100.00;101052.06;5055059;28;20091;-79
2022/12/28 06:58:27;;;;;;;8.48;3.05;;;;;;;7.05;100.00;101043.19;5054352;28;20033;-81
2022/12/28 07:00:53;;;;;;;5.82;2.85;;;;;;;7.06;100.00;101045.72;5054672;28;20078;-80
2022/12/28 07:03:20;;;;;;;6.55;2.90;;;;;;;7.03;100.00;101045.94;5053989;28;20424;-79
2022/12/28 07:05:45;;;;;;;6.75;2.67;;;;;;;7.04;100.00;101052.06;5054960;28;20041;-80
2022/12/28 07:08:11;;;;;;;4.68;2.80;;;;;;;7.02;100.00;101043.41;5054268;28;20385;-79
2022/12/28 07:10:36;;;;;;;4.47;3.03;;;;;;;7.02;100.00;101044.25;5054639;28;20029;-79
2022/12/28 07:13:02;;;;;;;4.00;2.63;;;;;;;7.02;100.00;101033.66;5054533;28;20474;-79
2022/12/28 07:15:28;;;;;;;7.45;3.10;;;;;;;7.02;100.00;101038.97;5054142;28;20496;-79
2022/12/28 07:17:53;;;;;;;5.25;2.95;;;;;;;7.03;100.00;101045.94;5054519;28;20056;-79
2022/12/28 07:20:19;;;;;;;7.90;3.33;;;;;;;7.06;100.00;101040.44;5053983;28;20366;-83
2022/12/28 07:22:44;;;;;;;6.50;3.05;;;;;;;7.10;100.00;101034.91;5054304;28;20039;-80
2022/12/28 07:25:10;;;;;;;7.20;3.13;;;;;;;7.10;100.00;101050.78;5054234;28;20090;-75
2022/12/28 07:27:35;;;;;;;4.32;3.03;;;;;;;7.11;100.00;101039.25;5053004;28;20029;-81
2022/12/28 07:30:01;;;;;;;8.18;3.28;;;;;;;7.09;100.00;101043.81;5054235;28;20079;-80
2022/12/28 07:32:26;;;;;;;5.15;3.05;;;;;;;7.10;100.00;101040.22;5053412;28;20025;-80
2022/12/28 07:34:52;;;;;;;4.38;2.72;;;;;;;7.08;100.00;101029.75;5053973;28;20048;-80
2022/12/28 07:37:17;;;;;;;5.82;3.03;;;;;;;7.09;100.00;101046.44;5053580;28;20037;-80
2022/12/28 07:39:43;;;;;;;7.68;2.55;;;;;;;7.13;100.00;101026.75;5054006;28;20039;-82
2022/12/28 07:42:10;;;;;;;4.20;2.75;;;;;;;7.15;100.00;101046.00;5052660;28;20465;-78
2022/12/28 07:44:36;;;;;;;8.07;3.00;;;;;;;7.20;100.00;101035.94;5053322;28;20139;-80
2022/12/28 07:47:02;;;;;;;5.10;2.88;;;;;;;7.26;100.00;101032.84;5053458;28;20512;-79
2022/12/28 07:49:27;;;;;;;6.68;2.78;;;;;;;7.24;100.00;101029.47;5053444;28;20055;-78
2022/12/28 07:51:53;;;;;;;3.45;2.70;;;;;;;7.23;100.00;101015.38;5053507;28;20432;-78
2022/12/28 07:54:18;;;;;;;6.40;2.78;;;;;;;7.32;100.00;101023.59;5053360;28;20436;-79
2022/12/28 07:56:43;;;;;;;7.18;2.88;;;;;;;7.32;100.00;101027.09;5053811;28;20052;-79
2022/12/28 07:59:12;;;;;;;6.10;3.05;;;;;;;7.36;100.00;101038.28;5053826;28;20037;-80
2022/12/28 08:01:38;;;;;;;5.35;2.60;;;;;;;7.38;100.00;101023.97;5053208;28;20124;-81
2022/12/28 08:04:06;;;;;;;5.57;2.50;;;;;;;7.41;100.00;101030.84;5053567;28;20040;-77
2022/12/28 08:06:34;;;;;;;5.90;2.83;;;;;;;7.39;100.00;101038.09;5053133;28;20546;-82
2022/12/28 08:09:00;;;;;;;8.30;2.78;;;;;;;7.37;100.00;101037.34;5053594;28;20029;-81
2022/12/28 08:11:32;;;;;;;5.57;2.47;;;;;;;7.38;100.00;101037.22;5052366;28;20041;-80
2022/12/28 08:13:57;;;;;;;;;;;;;;;7.37;100.00;101029.38;5053909;28;20126;-78
2022/12/28 08:16:25;;;;;;;7.63;2.67;;;;;;;7.37;100.00;101039.97;5052914;28;20046;-83
2022/12/28 08:18:51;;;;;;;3.45;2.40;;;;;;;7.38;100.00;101028.44;5051986;28;20033;-80
2022/12/28 08:21:24;;;;;;;7.85;3.08;;;;;;;7.41;100.00;101046.75;5052993;28;20481;-75
2022/12/28 08:23:50;;;;;;;6.90;2.70;;;;;;;7.43;100.00;101041.34;5053605;28;20029;-81
2022/12/28 08:26:18;;;;;;;4.32;2.35;;;;;;;7.44;100.00;101035.09;5052934;28;20064;-80
2022/12/28 08:28:46;;;;;;;4.95;2.30;;;;;;;7.46;100.00;101034.00;5052909;28;20427;-81
2022/12/28 08:31:23;;;;;;;8.25;2.70;;;;;;;7.47;100.00;101038.34;5053225;28;20110;-83
2022/12/28 08:33:50;;;;;;;3.60;2.15;;;;;;;7.51;100.00;101038.94;5052802;28;20126;-79
2022/12/28 08:36:16;;;;;;;5.47;2.30;;;;;;;7.49;100.00;101039.06;5053016;28;20040;-81
2022/12/28 08:38:43;;;;;;;4.38;2.20;;;;;;;7.53;100.00;101032.59;5052715;28;20024;-81
2022/12/28 08:41:13;;;;;;;3.22;2.05;;;;;;;7.52;100.00;101038.84;5052803;28;20477;-79
2022/12/28 08:43:38;;;;;;;6.40;3.03;;;;;;;7.56;100.00;101031.53;5051289;28;20044;-79
2022/12/28 08:46:07;;;;;;;3.85;2.45;;;;;;;7.57;100.00;101027.94;5052918;28;20025;-82
2022/12/28 08:48:33;;;;;;;4.00;2.20;;;;;;;7.57;100.00;101028.75;5052518;28;20032;-79
2022/12/28 08:51:02;;;;;;;8.23;2.95;;;;;;;7.59;100.00;101029.47;5052613;28;20073;-80
2022/12/28 08:53:27;;;;;;;2.70;2.28;;;;;;;7.59;100.00;101018.06;5052026;28;20036;-80
2022/12/28 08:55:53;;;;;;;5.53;2.58;;;;;;;7.59;100.00;101028.63;5052691;28;20033;-79
2022/12/28 08:58:18;;;;;;;2.65;2.00;;;;;;;7.57;100.00;101025.28;5052654;28;20116;-82
2022/12/28 09:00:44;;;;;;;3.45;2.20;;;;;;;7.65;100.00;101022.03;5052209;28;20366;-81
2022/12/28 09:03:09;;;;;;;3.72;2.15;;;;;;;7.64;100.00;101017.69;5052532;28;20123;-79
2022/12/28 09:05:38;;;;;;;5.55;2.10;;;;;;;7.62;100.00;101015.16;5050828;28;20068;-79
2022/12/28 09:08:04;;;;;;;4.93;2.75;;;;;;;7.58;100.00;101017.22;5052686;28;20037;-79
2022/12/28 09:10:30;;;;;;;4.32;2.42;;;;;;;7.54;100.00;101014.91;5052498;28;20430;-78
2022/12/28 09:12:55;;;;;;;3.80;2.10;;;;;;;7.54;100.00;101029.00;5046023;28;20481;-77
2022/12/28 09:15:21;;;;;;;4.55;2.30;;;;;;;7.49;100.00;101019.69;5043052;28;20457;-78
2022/12/28 09:17:46;;;;;;;5.22;2.10;;;;;;;7.47;100.00;100997.78;5051240;28;20029;-78
2022/12/28 09:20:12;;;;;;;2.90;2.00;;;;;;;7.48;100.00;101012.69;5051587;28;20366;-78
2022/12/28 09:22:37;;;;;;;4.22;2.20;;;;;;;7.52;100.00;101008.88;5051236;28;20032;-79
2022/12/28 09:25:04;;;;;;;4.57;2.10;;;;;;;7.55;100.00;101004.22;5054685;28;20044;-79
2022/12/28 09:27:29;;;;;;;3.92;2.17;;;;;;;7.59;100.00;101008.28;5055182;28;20049;-79
2022/12/28 09:29:54;;;;;;;3.15;1.98;;;;;;;7.62;100.00;101003.75;5054539;28;20059;-78
2022/12/28 09:32:20;;;;;;;3.10;1.88;;;;;;;7.64;100.00;100997.34;5055275;28;20346;-80
2022/12/28 09:34:45;;;;;;;7.25;2.30;;;;;;;7.64;100.00;101005.28;5053628;28;20191;-79
2022/12/28 09:37:10;;;;;;;6.55;2.50;;;;;;;7.62;100.00;101016.97;5054857;28;20033;-79
2022/12/28 09:39:36;;;;;;;7.20;2.30;;;;;;;7.63;100.00;101005.41;5053903;28;20040;-80
2022/12/28 09:42:23;;;;;;;9.57;2.95;;;;;;;7.66;100.00;101016.63;5054548;28;20190;-83
2022/12/28 09:44:58;;;;;;;7.50;2.90;;;;;;;7.67;100.00;101005.06;5055512;28;20021;-81
2022/12/28 09:47:39;;;;;;;6.78;2.75;;;;;;;7.71;100.00;101010.97;5055552;28;20036;-79
2022/12/28 09:50:17;;;;;;;7.00;2.60;;;;;;;7.72;100.00;101010.03;5055215;28;20025;-82
2022/12/28 09:52:42;;;;;;;9.10;2.78;;;;;;;7.71;100.00;101003.03;5055397;28;20036;-80
2022/12/28 09:55:13;;;;;;;9.48;2.90;;;;;;;7.77;100.00;101007.88;5055739;28;20476;-81
2022/12/28 09:57:44;;;;;;;5.18;2.65;;;;;;;7.77;100.00;101007.88;5054582;28;20025;-79
2022/12/28 10:00:17;;;;;;;6.60;2.55;;;;;;;7.80;100.00;101009.44;5055399;28;20481;-78
2022/12/28 10:02:46;;;;;;;5.93;2.70;;;;;;;7.80;100.00;101007.63;5054643;28;20033;-78
2022/12/28 10:05:11;;;;;;;5.53;2.30;;;;;;;7.82;100.00;101002.22;5055525;28;20033;-79
2022/12/28 10:07:37;;;;;;;4.38;2.25;;;;;;;7.85;100.00;100967.53;5053251;28;20040;-79
2022/12/28 10:10:03;;;;;;;6.65;2.83;;;;;;;7.85;100.00;101000.19;5054867;28;20527;-80
2022/12/28 10:12:28;;;;;;;6.10;2.38;;;;;;;7.84;100.00;101001.16;5054590;28;20040;-79
2022/12/28 10:14:55;;;;;;;6.82;2.70;;;;;;;7.80;100.00;101001.50;5054725;28;20466;-80
2022/12/28 10:17:26;;;;;;;8.13;2.40;;;;;;;7.78;100.00;100996.31;5054925;28;20032;-79
2022/12/28 10:19:55;;;;;;;7.32;2.47;;;;;;;7.71;100.00;100995.09;5054415;28;20029;-79
2022/12/28 10:22:22;;;;;;;11.82;2.58;;;;;;;7.67;100.00;101006.88;5054360;28;20116;-78
2022/12/28 10:24:49;;;;;;;4.28;2.13;;;;;;;7.59;100.00;100996.88;5054092;28;20033;-77
2022/12/28 10:27:21;;;;;;;6.18;2.50;;;;;;;7.55;100.00;100993.63;5054799;28;20052;-78
2022/12/28 10:29:50;;;;;;;8.32;2.70;;;;;;;7.50;100.00;100993.09;5054679;28;20029;-78
2022/12/28 10:32:16;;;;;;;8.18;2.88;;;;;;;7.47;100.00;101000.44;5054415;28;20021;-80
2022/12/28 10:34:59;;;;;;;5.90;2.97;;;;;;;7.40;100.00;100995.63;5056712;28;20266;-77
2022/12/28 10:37:29;;;;;;;5.20;2.70;;;;;;;7.35;100.00;100995.09;5054706;28;20385;-79
2022/12/28 10:39:58;;;;;;;5.30;2.85;;;;;;;7.33;100.00;100988.22;5053938;28;20100;-79
2022/12/28 10:42:37;;;;;;;9.65;3.20;;;;;;;7.33;100.00;100994.38;5054132;28;20115;-78
2022/12/28 10:45:16;;;;;;;4.05;3.03;;;;;;;7.30;100.00;100985.81;5054676;28;20044;-78
2022/12/28 10:47:45;;;;;;;4.40;3.05;;;;;;;7.28;100.00;100974.50;5054085;28;20032;-79
2022/12/28 10:50:40;;;;;;;6.65;3.50;;;;;;;7.24;100.00;100979.19;5054243;28;20477;-79
2022/12/28 10:53:15;;;;;;;7.97;2.85;;;;;;;7.24;100.00;100976.53;5054220;28;20021;-77
2022/12/28 10:55:41;;;;;;;7.63;3.15;;;;;;;7.22;100.00;100970.50;5054154;28;20480;-76
2022/12/28 10:58:22;;;;;;;5.80;2.70;;;;;;;7.20;100.00;100967.13;5054027;28;20037;-86
2022/12/28 11:01:14;;;;;;;;;;;;;;;7.16;100.00;100963.00;5054220;28;20041;-77
2022/12/28 11:04:01;;;;;;;5.72;2.80;;;;;;;7.14;100.00;100964.94;5054323;28;19908;-79
2022/12/28 11:06:32;;;;;;;8.20;3.20;;;;;;;7.11;100.00;100973.13;5054801;28;20032;-79
2022/12/28 11:09:18;;;;;;;;;;;;;;;7.10;100.00;100956.38;5054439;28;20025;-79
2022/12/28 11:11:45;;;;;;;5.88;3.22;;;;;;;7.05;100.00;100956.72;5056406;28;19909;-79
2022/12/28 11:14:14;;;;;;;5.70;3.00;;;;;;;7.05;100.00;100956.72;5054051;28;20107;-81
2022/12/28 11:16:40;;;;;;;5.03;3.00;;;;;;;7.02;100.00;100951.66;5053746;28;20032;-82
2022/12/28 11:19:06;;;;;;;6.32;3.00;;;;;;;7.02;100.00;100949.00;5053937;28;20029;-77
2022/12/28 11:21:33;;;;;;;5.93;3.10;;;;;;;7.01;100.00;100946.47;5053756;28;20041;-77
2022/12/28 11:23:59;;;;;;;8.10;3.50;;;;;;;6.99;100.00;100935.16;5054282;28;20061;-78
2022/12/28 11:26:26;;;;;;;5.78;3.10;;;;;;;6.98;100.00;100933.47;5054409;28;20067;-80
2022/12/28 11:28:53;;;;;;;5.57;3.08;;;;;;;6.97;100.00;100937.94;5053521;28;20051;-80
2022/12/28 11:31:47;;;;;;;6.50;3.20;;;;;;;6.97;100.00;100931.78;5053592;28;20029;-79
2022/12/28 11:34:18;;;;;;;4.50;2.80;;;;;;;6.95;100.00;100939.81;5050275;28;20132;-78
2022/12/28 11:36:44;;;;;;;;;;;;;;;6.94;100.00;100937.28;5053603;28;20116;-78
2022/12/28 11:39:45;;;;;;;6.07;2.65;;;;;;;6.93;100.00;100931.16;5053742;28;20337;-78
2022/12/28 11:42:31;;;;;;;5.80;2.55;;;;;;;6.91;100.00;100948.94;5041262;28;20090;-79
2022/12/28 11:44:58;;;;;;;5.60;2.65;;;;;;;6.90;100.00;100944.63;5052659;28;20131;-81
2022/12/28 11:47:32;;;;;;;8.93;2.65;;;;;;;6.88;100.00;100928.88;5052570;28;20029;-76
2022/12/28 11:50:32;;;;;;;5.85;2.30;;;;;;;6.87;100.00;100924.53;5053098;28;20036;-77
2022/12/28 11:52:58;;;;;;;5.60;2.25;;;;;;;6.87;100.00;100908.66;5052746;28;20029;-75
2022/12/28 11:55:23;;;;;;;3.63;2.20;;;;;;;6.85;100.00;100901.78;5052970;28;20456;-79